sensor_id;sensor_type;location;lat;lon;timestamp;pressure;altitude;pressure_sealevel;temperature
30765;BMP180;494;48.744;10.106;2023-07-31T00:01:38;95854.00;;;14.80
30765;BMP180;494;48.744;10.106;2023-07-31T09:44:18;95473.00;;;25.30
30765;BMP180;494;48.744;10.106;2023-07-31T09:46:47;95502.00;;;25.30
30765;BMP180;494;48.744;10.106;2023-07-31T09:49:32;95509.00;;;25.00
30765;BMP180;494;48.744;10.106;2023-07-31T09:52:21;95485.00;;;25.30
30765;BMP180;494;48.744;10.106;2023-07-31T09:54:51;95579.00;;;25.60
30765;BMP180;494;48.744;10.106;2023-07-31T09:58:03;95573.00;;;25.80
30765;BMP180;494;48.744;10.106;2023-07-31T10:00:46;95582.00;;;26.00
30765;BMP180;494;48.744;10.106;2023-07-31T10:03:21;95570.00;;;26.10
30765;BMP180;494;48.744;10.106;2023-07-31T10:06:00;95571.00;;;26.30
30765;BMP180;494;48.744;10.106;2023-07-31T10:08:37;95576.00;;;26.10
30765;BMP180;494;48.744;10.106;2023-07-31T10:11:10;95392.00;;;26.10
30765;BMP180;494;48.744;10.106;2023-07-31T10:13:42;95551.00;;;25.60
30765;BMP180;494;48.744;10.106;2023-07-31T10:16:14;95451.00;;;25.60
30765;BMP180;494;48.744;10.106;2023-07-31T10:18:45;95546.00;;;26.20
30765;BMP180;494;48.744;10.106;2023-07-31T10:21:17;95570.00;;;25.20
30765;BMP180;494;48.744;10.106;2023-07-31T10:23:48;95479.00;;;26.40
30765;BMP180;494;48.744;10.106;2023-07-31T10:26:20;95429.00;;;26.70
30765;BMP180;494;48.744;10.106;2023-07-31T10:28:52;95421.00;;;26.70
30765;BMP180;494;48.744;10.106;2023-07-31T10:31:24;95531.00;;;26.80
30765;BMP180;494;48.744;10.106;2023-07-31T10:33:56;95480.00;;;27.00
30765;BMP180;494;48.744;10.106;2023-07-31T10:36:27;95530.00;;;27.20
30765;BMP180;494;48.744;10.106;2023-07-31T10:38:56;95524.00;;;27.10
30765;BMP180;494;48.744;10.106;2023-07-31T10:41:29;95522.00;;;27.40
30765;BMP180;494;48.744;10.106;2023-07-31T10:44:00;95621.00;;;27.90
30765;BMP180;494;48.744;10.106;2023-07-31T10:46:32;95510.00;;;28.00
30765;BMP180;494;48.744;10.106;2023-07-31T10:49:04;95502.00;;;27.90
30765;BMP180;494;48.744;10.106;2023-07-31T10:51:34;95503.00;;;28.00
30765;BMP180;494;48.744;10.106;2023-07-31T10:54:15;95479.00;;;27.50
30765;BMP180;494;48.744;10.106;2023-07-31T10:56:45;95449.00;;;27.80
30765;BMP180;494;48.744;10.106;2023-07-31T10:59:14;95349.00;;;28.00
30765;BMP180;494;48.744;10.106;2023-07-31T11:02:23;95476.00;;;27.70
30765;BMP180;494;48.744;10.106;2023-07-31T11:05:17;95484.00;;;27.70
30765;BMP180;494;48.744;10.106;2023-07-31T11:07:47;95406.00;;;27.30
30765;BMP180;494;48.744;10.106;2023-07-31T11:10:24;95382.00;;;27.30
30765;BMP180;494;48.744;10.106;2023-07-31T11:12:53;95313.00;;;27.80
30765;BMP180;494;48.744;10.106;2023-07-31T11:15:22;95292.00;;;28.10
30765;BMP180;494;48.744;10.106;2023-07-31T11:17:52;95279.00;;;28.40
30765;BMP180;494;48.744;10.106;2023-07-31T11:20:21;95421.00;;;28.60
30765;BMP180;494;48.744;10.106;2023-07-31T11:22:52;95480.00;;;28.50
30765;BMP180;494;48.744;10.106;2023-07-31T11:25:23;95402.00;;;28.60
30765;BMP180;494;48.744;10.106;2023-07-31T11:27:53;95414.00;;;28.70
30765;BMP180;494;48.744;10.106;2023-07-31T11:30:23;95467.00;;;29.50
30765;BMP180;494;48.744;10.106;2023-07-31T11:32:55;95507.00;;;29.60
30765;BMP180;494;48.744;10.106;2023-07-31T11:35:24;95486.00;;;29.70
30765;BMP180;494;48.744;10.106;2023-07-31T11:37:53;95384.00;;;29.80
30765;BMP180;494;48.744;10.106;2023-07-31T11:40:22;95472.00;;;29.50
30765;BMP180;494;48.744;10.106;2023-07-31T11:43:04;95507.00;;;29.60
30765;BMP180;494;48.744;10.106;2023-07-31T11:45:33;95227.00;;;29.60
30765;BMP180;494;48.744;10.106;2023-07-31T11:48:04;95431.00;;;29.20
30765;BMP180;494;48.744;10.106;2023-07-31T11:50:35;95494.00;;;29.40
30765;BMP180;494;48.744;10.106;2023-07-31T11:53:09;95502.00;;;29.50
30765;BMP180;494;48.744;10.106;2023-07-31T11:55:38;95338.00;;;29.50
30765;BMP180;494;48.744;10.106;2023-07-31T11:58:09;95402.00;;;29.50
30765;BMP180;494;48.744;10.106;2023-07-31T12:00:38;95496.00;;;29.60
30765;BMP180;494;48.744;10.106;2023-07-31T12:03:09;95390.00;;;29.30
30765;BMP180;494;48.744;10.106;2023-07-31T12:05:38;95481.00;;;29.10
30765;BMP180;494;48.744;10.106;2023-07-31T12:08:11;95331.00;;;29.30
30765;BMP180;494;48.744;10.106;2023-07-31T12:10:40;95411.00;;;29.10
30765;BMP180;494;48.744;10.106;2023-07-31T12:13:11;95410.00;;;29.60
30765;BMP180;494;48.744;10.106;2023-07-31T12:15:43;95465.00;;;30.40
30765;BMP180;494;48.744;10.106;2023-07-31T12:18:19;95408.00;;;30.70
30765;BMP180;494;48.744;10.106;2023-07-31T12:20:53;95471.00;;;30.50
30765;BMP180;494;48.744;10.106;2023-07-31T12:23:26;95467.00;;;30.70
30765;BMP180;494;48.744;10.106;2023-07-31T12:26:03;95393.00;;;30.80
30765;BMP180;494;48.744;10.106;2023-07-31T12:28:36;95434.00;;;30.20
30765;BMP180;494;48.744;10.106;2023-07-31T12:31:09;95413.00;;;29.30
30765;BMP180;494;48.744;10.106;2023-07-31T12:33:41;95470.00;;;29.00
30765;BMP180;494;48.744;10.106;2023-07-31T12:36:13;95448.00;;;29.10
30765;BMP180;494;48.744;10.106;2023-07-31T12:38:42;95435.00;;;28.30
30765;BMP180;494;48.744;10.106;2023-07-31T12:41:13;95447.00;;;28.50
30765;BMP180;494;48.744;10.106;2023-07-31T12:43:44;95377.00;;;29.10
30765;BMP180;494;48.744;10.106;2023-07-31T12:46:13;95330.00;;;29.40
30765;BMP180;494;48.744;10.106;2023-07-31T12:48:46;95377.00;;;29.40
30765;BMP180;494;48.744;10.106;2023-07-31T12:51:15;95341.00;;;29.50
30765;BMP180;494;48.744;10.106;2023-07-31T12:53:44;95353.00;;;29.60
30765;BMP180;494;48.744;10.106;2023-07-31T12:56:13;95413.00;;;29.60
30765;BMP180;494;48.744;10.106;2023-07-31T12:58:42;95410.00;;;29.20
30765;BMP180;494;48.744;10.106;2023-07-31T13:01:11;95402.00;;;29.00
30765;BMP180;494;48.744;10.106;2023-07-31T13:03:40;95396.00;;;28.40
30765;BMP180;494;48.744;10.106;2023-07-31T13:06:10;95398.00;;;28.60
30765;BMP180;494;48.744;10.106;2023-07-31T13:08:40;95381.00;;;28.80
30765;BMP180;494;48.744;10.106;2023-07-31T13:11:09;95389.00;;;29.40
30765;BMP180;494;48.744;10.106;2023-07-31T13:13:37;95384.00;;;29.60
30765;BMP180;494;48.744;10.106;2023-07-31T13:16:08;95304.00;;;29.40
30765;BMP180;494;48.744;10.106;2023-07-31T13:18:37;95296.00;;;29.50
30765;BMP180;494;48.744;10.106;2023-07-31T13:21:06;95229.00;;;29.40
30765;BMP180;494;48.744;10.106;2023-07-31T13:23:36;95377.00;;;28.80
30765;BMP180;494;48.744;10.106;2023-07-31T13:26:05;95316.00;;;28.40
30765;BMP180;494;48.744;10.106;2023-07-31T13:28:34;95371.00;;;28.80
30765;BMP180;494;48.744;10.106;2023-07-31T13:31:03;95242.00;;;28.80
30765;BMP180;494;48.744;10.106;2023-07-31T13:33:31;95356.00;;;29.10
30765;BMP180;494;48.744;10.106;2023-07-31T13:36:05;95351.00;;;29.90
30765;BMP180;494;48.744;10.106;2023-07-31T13:38:35;95224.00;;;29.90
30765;BMP180;494;48.744;10.106;2023-07-31T13:41:04;95352.00;;;30.20
30765;BMP180;494;48.744;10.106;2023-07-31T13:43:33;95328.00;;;29.90
30765;BMP180;494;48.744;10.106;2023-07-31T13:46:02;95283.00;;;29.30
30765;BMP180;494;48.744;10.106;2023-07-31T13:48:35;95313.00;;;28.90
30765;BMP180;494;48.744;10.106;2023-07-31T13:51:05;95363.00;;;29.00
30765;BMP180;494;48.744;10.106;2023-07-31T13:53:35;95367.00;;;28.70
30765;BMP180;494;48.744;10.106;2023-07-31T13:56:04;95250.00;;;28.10
30765;BMP180;494;48.744;10.106;2023-07-31T13:58:33;95345.00;;;27.90
30765;BMP180;494;48.744;10.106;2023-07-31T14:01:02;95357.00;;;28.00
30765;BMP180;494;48.744;10.106;2023-07-31T14:03:31;95365.00;;;28.10
30765;BMP180;494;48.744;10.106;2023-07-31T14:06:00;95366.00;;;28.00
30765;BMP180;494;48.744;10.106;2023-07-31T14:08:29;95297.00;;;27.70
30765;BMP180;494;48.744;10.106;2023-07-31T14:10:59;95066.00;;;28.00
30765;BMP180;494;48.744;10.106;2023-07-31T14:13:30;95327.00;;;28.00
30765;BMP180;494;48.744;10.106;2023-07-31T14:15:58;95349.00;;;28.10
30765;BMP180;494;48.744;10.106;2023-07-31T14:18:27;95343.00;;;28.20
30765;BMP180;494;48.744;10.106;2023-07-31T14:20:57;95237.00;;;27.90
30765;BMP180;494;48.744;10.106;2023-07-31T14:23:25;95172.00;;;28.00
30765;BMP180;494;48.744;10.106;2023-07-31T14:25:54;95347.00;;;27.50
30765;BMP180;494;48.744;10.106;2023-07-31T14:28:25;95358.00;;;27.20
30765;BMP180;494;48.744;10.106;2023-07-31T14:30:54;95344.00;;;26.80
30765;BMP180;494;48.744;10.106;2023-07-31T14:33:23;95259.00;;;26.50
30765;BMP180;494;48.744;10.106;2023-07-31T14:35:52;95182.00;;;26.60
30765;BMP180;494;48.744;10.106;2023-07-31T14:38:21;95302.00;;;26.50
30765;BMP180;494;48.744;10.106;2023-07-31T14:40:51;95359.00;;;26.70
30765;BMP180;494;48.744;10.106;2023-07-31T14:43:21;95260.00;;;26.60
30765;BMP180;494;48.744;10.106;2023-07-31T14:45:51;95257.00;;;26.70
30765;BMP180;494;48.744;10.106;2023-07-31T14:48:23;95241.00;;;26.30
30765;BMP180;494;48.744;10.106;2023-07-31T14:50:52;95288.00;;;26.40
30765;BMP180;494;48.744;10.106;2023-07-31T14:53:21;95341.00;;;26.30
30765;BMP180;494;48.744;10.106;2023-07-31T14:55:50;95313.00;;;26.20
30765;BMP180;494;48.744;10.106;2023-07-31T14:58:19;95342.00;;;26.20
30765;BMP180;494;48.744;10.106;2023-07-31T15:00:50;95312.00;;;25.90
30765;BMP180;494;48.744;10.106;2023-07-31T15:03:19;95339.00;;;26.70
30765;BMP180;494;48.744;10.106;2023-07-31T15:05:49;95256.00;;;26.50
30765;BMP180;494;48.744;10.106;2023-07-31T15:08:21;95270.00;;;27.00
30765;BMP180;494;48.744;10.106;2023-07-31T15:10:51;95345.00;;;26.90
30765;BMP180;494;48.744;10.106;2023-07-31T15:13:25;95277.00;;;26.70
30765;BMP180;494;48.744;10.106;2023-07-31T15:15:56;95271.00;;;26.50
30765;BMP180;494;48.744;10.106;2023-07-31T15:18:25;95210.00;;;26.10
30765;BMP180;494;48.744;10.106;2023-07-31T15:20:54;95266.00;;;26.70
30765;BMP180;494;48.744;10.106;2023-07-31T15:23:23;95336.00;;;26.40
30765;BMP180;494;48.744;10.106;2023-07-31T15:25:53;95336.00;;;26.60
30765;BMP180;494;48.744;10.106;2023-07-31T15:31:13;95202.00;;;25.90
30765;BMP180;494;48.744;10.106;2023-07-31T15:33:42;95280.00;;;26.30
30765;BMP180;494;48.744;10.106;2023-07-31T15:53:09;95229.00;;;26.60
30765;BMP180;494;48.744;10.106;2023-07-31T15:55:41;95268.00;;;26.80
30765;BMP180;494;48.744;10.106;2023-07-31T15:58:10;95036.00;;;26.90
30765;BMP180;494;48.744;10.106;2023-07-31T16:05:06;95380.00;;;27.40
30765;BMP180;494;48.744;10.106;2023-07-31T16:08:27;95282.00;;;27.30
30765;BMP180;494;48.744;10.106;2023-07-31T16:11:09;95334.00;;;27.00
30765;BMP180;494;48.744;10.106;2023-07-31T16:13:46;95246.00;;;27.20
30765;BMP180;494;48.744;10.106;2023-07-31T16:16:29;95115.00;;;27.00
30765;BMP180;494;48.744;10.106;2023-07-31T16:19:13;95261.00;;;26.60
30765;BMP180;494;48.744;10.106;2023-07-31T16:22:14;95254.00;;;26.30
30765;BMP180;494;48.744;10.106;2023-07-31T16:24:46;95256.00;;;26.40
30765;BMP180;494;48.744;10.106;2023-07-31T16:27:15;95111.00;;;25.70
30765;BMP180;494;48.744;10.106;2023-07-31T16:29:45;95198.00;;;25.80
30765;BMP180;494;48.744;10.106;2023-07-31T16:32:14;95253.00;;;25.80
30765;BMP180;494;48.744;10.106;2023-07-31T16:34:47;95204.00;;;25.40
30765;BMP180;494;48.744;10.106;2023-07-31T16:37:16;94977.00;;;26.10
30765;BMP180;494;48.744;10.106;2023-07-31T16:39:52;95158.00;;;26.20
30765;BMP180;494;48.744;10.106;2023-07-31T16:42:22;95060.00;;;25.90
30765;BMP180;494;48.744;10.106;2023-07-31T16:44:52;95164.00;;;26.80
30765;BMP180;494;48.744;10.106;2023-07-31T16:47:21;95161.00;;;26.80
30765;BMP180;494;48.744;10.106;2023-07-31T16:49:53;95190.00;;;27.00
30765;BMP180;494;48.744;10.106;2023-07-31T16:52:22;95090.00;;;26.70
30765;BMP180;494;48.744;10.106;2023-07-31T16:54:53;95173.00;;;27.00
30765;BMP180;494;48.744;10.106;2023-07-31T16:57:22;95181.00;;;26.80
30765;BMP180;494;48.744;10.106;2023-07-31T16:59:52;95222.00;;;27.10
30765;BMP180;494;48.744;10.106;2023-07-31T17:02:21;95166.00;;;27.00
30765;BMP180;494;48.744;10.106;2023-07-31T17:04:50;95212.00;;;27.60
30765;BMP180;494;48.744;10.106;2023-07-31T17:07:21;95136.00;;;27.70
30765;BMP180;494;48.744;10.106;2023-07-31T17:09:57;95074.00;;;27.50
30765;BMP180;494;48.744;10.106;2023-07-31T17:12:26;95032.00;;;27.60
30765;BMP180;494;48.744;10.106;2023-07-31T17:14:57;95166.00;;;27.40
30765;BMP180;494;48.744;10.106;2023-07-31T17:17:26;95246.00;;;27.40
30765;BMP180;494;48.744;10.106;2023-07-31T17:19:55;95116.00;;;26.70
30765;BMP180;494;48.744;10.106;2023-07-31T17:22:24;95123.00;;;26.60
30765;BMP180;494;48.744;10.106;2023-07-31T17:25:14;95126.00;;;26.70
30765;BMP180;494;48.744;10.106;2023-07-31T17:27:43;95156.00;;;26.40
30765;BMP180;494;48.744;10.106;2023-07-31T17:30:13;95220.00;;;26.20
30765;BMP180;494;48.744;10.106;2023-07-31T17:32:41;95120.00;;;26.20
30765;BMP180;494;48.744;10.106;2023-07-31T17:35:10;95156.00;;;25.90
30765;BMP180;494;48.744;10.106;2023-07-31T17:37:39;95220.00;;;25.90
30765;BMP180;494;48.744;10.106;2023-07-31T17:40:10;95223.00;;;25.80
30765;BMP180;494;48.744;10.106;2023-07-31T17:42:40;95161.00;;;25.60
30765;BMP180;494;48.744;10.106;2023-07-31T17:45:10;95211.00;;;25.60
30765;BMP180;494;48.744;10.106;2023-07-31T17:47:39;95207.00;;;25.50
30765;BMP180;494;48.744;10.106;2023-07-31T17:50:18;95198.00;;;25.40
30765;BMP180;494;48.744;10.106;2023-07-31T17:52:46;95164.00;;;25.30
30765;BMP180;494;48.744;10.106;2023-07-31T17:55:15;95197.00;;;25.20
30765;BMP180;494;48.744;10.106;2023-07-31T17:57:46;95188.00;;;24.50
30765;BMP180;494;48.744;10.106;2023-07-31T18:00:15;94969.00;;;24.80
30765;BMP180;494;48.744;10.106;2023-07-31T18:02:44;95033.00;;;24.70
30765;BMP180;494;48.744;10.106;2023-07-31T18:05:14;95107.00;;;24.70
30765;BMP180;494;48.744;10.106;2023-07-31T18:07:43;95152.00;;;24.70
30765;BMP180;494;48.744;10.106;2023-07-31T18:10:12;95121.00;;;24.50
30765;BMP180;494;48.744;10.106;2023-07-31T18:12:40;95209.00;;;24.80
30765;BMP180;494;48.744;10.106;2023-07-31T18:15:12;95188.00;;;24.40
30765;BMP180;494;48.744;10.106;2023-07-31T18:17:40;95191.00;;;24.30
30765;BMP180;494;48.744;10.106;2023-07-31T18:20:14;95214.00;;;24.30
30765;BMP180;494;48.744;10.106;2023-07-31T18:22:45;95121.00;;;24.00
30765;BMP180;494;48.744;10.106;2023-07-31T18:25:14;95218.00;;;24.20
30765;BMP180;494;48.744;10.106;2023-07-31T18:27:43;95159.00;;;24.30
30765;BMP180;494;48.744;10.106;2023-07-31T18:30:18;95204.00;;;24.30
30765;BMP180;494;48.744;10.106;2023-07-31T18:32:47;95144.00;;;23.90
30765;BMP180;494;48.744;10.106;2023-07-31T18:35:16;95213.00;;;24.20
30765;BMP180;494;48.744;10.106;2023-07-31T18:37:47;95057.00;;;23.90
30765;BMP180;494;48.744;10.106;2023-07-31T18:40:16;95157.00;;;24.00
30765;BMP180;494;48.744;10.106;2023-07-31T18:42:48;95160.00;;;24.00
30765;BMP180;494;48.744;10.106;2023-07-31T18:45:20;95147.00;;;23.70
30765;BMP180;494;48.744;10.106;2023-07-31T18:47:51;95090.00;;;23.70
30765;BMP180;494;48.744;10.106;2023-07-31T18:50:20;95132.00;;;23.70
30765;BMP180;494;48.744;10.106;2023-07-31T18:52:50;95133.00;;;23.00
30765;BMP180;494;48.744;10.106;2023-07-31T18:55:20;95040.00;;;23.60
30765;BMP180;494;48.744;10.106;2023-07-31T18:57:49;95223.00;;;23.30
30765;BMP180;494;48.744;10.106;2023-07-31T19:00:20;95233.00;;;23.40
30765;BMP180;494;48.744;10.106;2023-07-31T19:02:50;95118.00;;;23.00
30765;BMP180;494;48.744;10.106;2023-07-31T19:05:19;95088.00;;;23.30
30765;BMP180;494;48.744;10.106;2023-07-31T19:07:48;95293.00;;;22.50
30765;BMP180;494;48.744;10.106;2023-07-31T19:10:18;95120.00;;;23.20
30765;BMP180;494;48.744;10.106;2023-07-31T19:12:47;95131.00;;;22.80
30765;BMP180;494;48.744;10.106;2023-07-31T19:15:16;95160.00;;;22.90
30765;BMP180;494;48.744;10.106;2023-07-31T19:17:48;95143.00;;;21.90
30765;BMP180;494;48.744;10.106;2023-07-31T19:20:17;95188.00;;;22.50
30765;BMP180;494;48.744;10.106;2023-07-31T19:22:46;95131.00;;;22.20
30765;BMP180;494;48.744;10.106;2023-07-31T19:25:15;95076.00;;;22.30
30765;BMP180;494;48.744;10.106;2023-07-31T19:27:48;95096.00;;;22.20
30765;BMP180;494;48.744;10.106;2023-07-31T19:30:25;95094.00;;;22.20
30765;BMP180;494;48.744;10.106;2023-07-31T19:32:58;95128.00;;;22.10
30765;BMP180;494;48.744;10.106;2023-07-31T19:35:28;95194.00;;;21.40
30765;BMP180;494;48.744;10.106;2023-07-31T19:37:57;95202.00;;;20.90
30765;BMP180;494;48.744;10.106;2023-07-31T19:40:27;95201.00;;;21.60
30765;BMP180;494;48.744;10.106;2023-07-31T19:43:10;95207.00;;;21.60
30765;BMP180;494;48.744;10.106;2023-07-31T19:45:50;95202.00;;;21.30
30765;BMP180;494;48.744;10.106;2023-07-31T19:48:21;95100.00;;;21.50
30765;BMP180;494;48.744;10.106;2023-07-31T19:50:55;95185.00;;;21.40
30765;BMP180;494;48.744;10.106;2023-07-31T19:53:25;94618.00;;;21.40
30765;BMP180;494;48.744;10.106;2023-07-31T19:55:54;95191.00;;;21.20
30765;BMP180;494;48.744;10.106;2023-07-31T19:58:33;95103.00;;;19.90
30765;BMP180;494;48.744;10.106;2023-07-31T20:01:19;95226.00;;;21.00
30765;BMP180;494;48.744;10.106;2023-07-31T20:04:28;95027.00;;;20.90
30765;BMP180;494;48.744;10.106;2023-07-31T20:07:04;94974.00;;;20.90
30765;BMP180;494;48.744;10.106;2023-07-31T20:09:46;94976.00;;;20.90
30765;BMP180;494;48.744;10.106;2023-07-31T20:12:40;95154.00;;;20.70
30765;BMP180;494;48.744;10.106;2023-07-31T20:15:29;95167.00;;;20.60
30765;BMP180;494;48.744;10.106;2023-07-31T20:18:16;95052.00;;;20.60
30765;BMP180;494;48.744;10.106;2023-07-31T20:21:06;95030.00;;;20.50
30765;BMP180;494;48.744;10.106;2023-07-31T20:24:10;94982.00;;;20.60
30765;BMP180;494;48.744;10.106;2023-07-31T20:26:49;95160.00;;;20.50
30765;BMP180;494;48.744;10.106;2023-07-31T20:29:23;94962.00;;;20.50
30765;BMP180;494;48.744;10.106;2023-07-31T20:32:16;95096.00;;;20.40
30765;BMP180;494;48.744;10.106;2023-07-31T20:35:09;95175.00;;;20.40
30765;BMP180;494;48.744;10.106;2023-07-31T20:37:59;95172.00;;;20.00
30765;BMP180;494;48.744;10.106;2023-07-31T20:40:54;95177.00;;;20.10
30765;BMP180;494;48.744;10.106;2023-07-31T20:43:25;95102.00;;;19.70
30765;BMP180;494;48.744;10.106;2023-07-31T20:46:18;95049.00;;;20.30
30765;BMP180;494;48.744;10.106;2023-07-31T20:49:04;95109.00;;;20.20
30765;BMP180;494;48.744;10.106;2023-07-31T20:51:40;95163.00;;;20.10
30765;BMP180;494;48.744;10.106;2023-07-31T20:54:14;95114.00;;;20.10
30765;BMP180;494;48.744;10.106;2023-07-31T20:56:53;95076.00;;;20.00
30765;BMP180;494;48.744;10.106;2023-07-31T20:59:28;95068.00;;;20.00
30765;BMP180;494;48.744;10.106;2023-07-31T21:05:26;95138.00;;;20.00
30765;BMP180;494;48.744;10.106;2023-07-31T21:08:14;95068.00;;;19.90
30765;BMP180;494;48.744;10.106;2023-07-31T21:10:56;95167.00;;;18.70
30765;BMP180;494;48.744;10.106;2023-07-31T21:13:32;95137.00;;;19.80
30765;BMP180;494;48.744;10.106;2023-07-31T21:16:11;95121.00;;;19.80
30765;BMP180;494;48.744;10.106;2023-07-31T21:19:10;95119.00;;;19.80
30765;BMP180;494;48.744;10.106;2023-07-31T21:21:57;95109.00;;;19.90
30765;BMP180;494;48.744;10.106;2023-07-31T21:24:41;95120.00;;;19.90
30765;BMP180;494;48.744;10.106;2023-07-31T21:27:15;95109.00;;;19.90
30765;BMP180;494;48.744;10.106;2023-07-31T21:30:10;95024.00;;;20.10
30765;BMP180;494;48.744;10.106;2023-07-31T21:33:22;95100.00;;;20.00
30765;BMP180;494;48.744;10.106;2023-07-31T21:36:14;95115.00;;;18.80
30765;BMP180;494;48.744;10.106;2023-07-31T21:39:02;94762.00;;;19.80
30765;BMP180;494;48.744;10.106;2023-07-31T21:41:38;95037.00;;;19.60
30765;BMP180;494;48.744;10.106;2023-07-31T21:44:37;95055.00;;;19.50
30765;BMP180;494;48.744;10.106;2023-07-31T21:47:14;95031.00;;;19.70
30765;BMP180;494;48.744;10.106;2023-07-31T21:49:44;94983.00;;;19.70
30765;BMP180;494;48.744;10.106;2023-07-31T21:52:16;95072.00;;;19.70
30765;BMP180;494;48.744;10.106;2023-07-31T21:54:46;94648.00;;;19.40
30765;BMP180;494;48.744;10.106;2023-07-31T21:57:17;95025.00;;;19.70
30765;BMP180;494;48.744;10.106;2023-07-31T21:59:48;95077.00;;;19.60
30765;BMP180;494;48.744;10.106;2023-07-31T22:02:20;94926.00;;;19.60
30765;BMP180;494;48.744;10.106;2023-07-31T22:04:51;94971.00;;;19.80
30765;BMP180;494;48.744;10.106;2023-07-31T22:07:21;94919.00;;;19.90
30765;BMP180;494;48.744;10.106;2023-07-31T22:09:50;95000.00;;;19.90
30765;BMP180;494;48.744;10.106;2023-07-31T22:12:21;94830.00;;;19.90
30765;BMP180;494;48.744;10.106;2023-07-31T22:14:55;95006.00;;;19.70
30765;BMP180;494;48.744;10.106;2023-07-31T22:17:24;94936.00;;;19.70
30765;BMP180;494;48.744;10.106;2023-07-31T22:19:53;94650.00;;;19.70
30765;BMP180;494;48.744;10.106;2023-07-31T22:22:23;94993.00;;;19.70
30765;BMP180;494;48.744;10.106;2023-07-31T22:24:54;94850.00;;;19.70
30765;BMP180;494;48.744;10.106;2023-07-31T22:27:24;94886.00;;;19.50
30765;BMP180;494;48.744;10.106;2023-07-31T22:29:55;94727.00;;;19.70
30765;BMP180;494;48.744;10.106;2023-07-31T22:32:24;94964.00;;;19.50
30765;BMP180;494;48.744;10.106;2023-07-31T22:34:54;94962.00;;;19.90
30765;BMP180;494;48.744;10.106;2023-07-31T22:37:24;94896.00;;;19.80
30765;BMP180;494;48.744;10.106;2023-07-31T22:39:54;94682.00;;;19.60
30765;BMP180;494;48.744;10.106;2023-07-31T22:42:27;94942.00;;;19.60
30765;BMP180;494;48.744;10.106;2023-07-31T22:44:59;94945.00;;;19.90
30765;BMP180;494;48.744;10.106;2023-07-31T22:47:32;94889.00;;;20.00
30765;BMP180;494;48.744;10.106;2023-07-31T22:50:03;94806.00;;;20.00
30765;BMP180;494;48.744;10.106;2023-07-31T22:52:36;94678.00;;;20.00
30765;BMP180;494;48.744;10.106;2023-07-31T22:55:07;94846.00;;;20.00
30765;BMP180;494;48.744;10.106;2023-07-31T22:57:36;94752.00;;;19.60
30765;BMP180;494;48.744;10.106;2023-07-31T23:00:23;94840.00;;;19.70
30765;BMP180;494;48.744;10.106;2023-07-31T23:02:55;94903.00;;;19.00
30765;BMP180;494;48.744;10.106;2023-07-31T23:05:49;94806.00;;;19.60
30765;BMP180;494;48.744;10.106;2023-07-31T23:08:18;94752.00;;;19.30
30765;BMP180;494;48.744;10.106;2023-07-31T23:10:51;94913.00;;;19.60
30765;BMP180;494;48.744;10.106;2023-07-31T23:13:22;94947.00;;;19.10
30765;BMP180;494;48.744;10.106;2023-07-31T23:15:54;94766.00;;;19.70
30765;BMP180;494;48.744;10.106;2023-07-31T23:18:39;94648.00;;;19.00
30765;BMP180;494;48.744;10.106;2023-07-31T23:21:10;94881.00;;;19.50
30765;BMP180;494;48.744;10.106;2023-07-31T23:23:41;94953.00;;;19.60
30765;BMP180;494;48.744;10.106;2023-07-31T23:26:12;94476.00;;;19.00
30765;BMP180;494;48.744;10.106;2023-07-31T23:28:42;94926.00;;;19.50
30765;BMP180;494;48.744;10.106;2023-07-31T23:31:14;94922.00;;;19.50
30765;BMP180;494;48.744;10.106;2023-07-31T23:33:46;94917.00;;;19.50
30765;BMP180;494;48.744;10.106;2023-07-31T23:36:15;94620.00;;;19.20
30765;BMP180;494;48.744;10.106;2023-07-31T23:38:47;94910.00;;;19.40
30765;BMP180;494;48.744;10.106;2023-07-31T23:41:19;94920.00;;;19.10
30765;BMP180;494;48.744;10.106;2023-07-31T23:43:48;94833.00;;;19.10
30765;BMP180;494;48.744;10.106;2023-07-31T23:46:21;94836.00;;;19.30
30765;BMP180;494;48.744;10.106;2023-07-31T23:48:50;94770.00;;;19.30
30765;BMP180;494;48.744;10.106;2023-07-31T23:51:21;94868.00;;;19.30
30765;BMP180;494;48.744;10.106;2023-07-31T23:53:53;94723.00;;;19.30
30765;BMP180;494;48.744;10.106;2023-07-31T23:56:23;94864.00;;;19.40
30765;BMP180;494;48.744;10.106;2023-07-31T23:58:53;94809.00;;;18.60
